Time;durP1;ratioP1;P1;durP2;ratioP2;P2;SDS_P1;SDS_P2;PMS_P1;PMS_P2;Temp;Humidity;BMP_temperature;BMP_pressure;BME280_temperature;BME280_humidity;BME280_pressure;Samples;Min_cycle;Max_cycle;Signal;HPM_P1;HPM_P2
2021/04/29 00:01:23;;;;;;;13.85;9.85;;;;;;;;;;5074452;28;20491;-63
2021/04/29 00:04:08;;;;;;;14.68;10.65;;;;;;;;;;5074453;28;20127;-63
2021/04/29 00:06:54;;;;;;;10.65;8.65;;;;;;;;;;5074528;28;20041;-63
2021/04/29 00:09:39;;;;;;;13.02;8.98;;;;;;;;;;5074206;28;20060;-63
2021/04/29 00:12:24;;;;;;;11.52;9.63;;;;;;;;;;5074562;28;20584;-62
2021/04/29 00:15:10;;;;;;;14.48;10.05;;;;;;;;;;5074146;28;20075;-63
2021/04/29 00:17:56;;;;;;;11.57;9.43;;;;;;;;;;5073489;28;20102;-63
2021/04/29 00:20:41;;;;;;;11.68;8.52;;;;;;;;;;5053011;28;20049;-63
2021/04/29 00:23:26;;;;;;;15.80;10.93;;;;;;;;;;5054281;28;20076;-63
2021/04/29 00:26:12;;;;;;;14.02;10.38;;;;;;;;;;5054230;28;20059;-63
2021/04/29 00:28:57;;;;;;;11.93;9.73;;;;;;;;;;5058616;28;20110;-62
2021/04/29 00:31:42;;;;;;;14.68;9.48;;;;;;;;;;5074043;28;20049;-63
2021/04/29 00:34:28;;;;;;;16.98;10.32;;;;;;;;;;5074010;28;20059;-62
2021/04/29 00:37:13;;;;;;;11.18;9.02;;;;;;;;;;5073976;28;20037;-63
2021/04/29 00:39:58;;;;;;;12.30;9.80;;;;;;;;;;5073569;28;20045;-63
2021/04/29 00:42:45;;;;;;;11.93;10.05;;;;;;;;;;5074149;28;20048;-62
2021/04/29 00:45:30;;;;;;;12.38;9.55;;;;;;;;;;5073923;28;20409;-62
2021/04/29 00:48:15;;;;;;;14.48;11.18;;;;;;;;;;5073884;28;20131;-62
2021/04/29 00:51:01;;;;;;;12.55;9.30;;;;;;;;;;5073545;28;20055;-62
2021/04/29 00:53:47;;;;;;;15.35;8.70;;;;;;;;;;5073867;28;20130;-62
2021/04/29 00:56:32;;;;;;;11.85;9.32;;;;;;;;;;5073576;28;20194;-61
2021/04/29 00:59:18;;;;;;;14.75;9.77;;;;;;;;;;5073776;28;20041;-63
2021/04/29 01:02:03;;;;;;;15.20;10.25;;;;;;;;;;5052739;28;20045;-62
2021/04/29 01:04:57;;;;;;;16.45;9.63;;;;;;;;;;5060894;22;20494;-62
2021/04/29 01:07:47;;;;;;;13.50;9.95;;;;;;;;;;5039363;28;20049;-62
2021/04/29 01:10:37;;;;;;;19.20;9.75;;;;;;;;;;5053182;28;20041;-62
2021/04/29 01:13:23;;;;;;;13.30;9.48;;;;;;;;;;5053414;28;20505;-62
2021/04/29 01:16:08;;;;;;;13.80;9.38;;;;;;;;;;5053160;28;20045;-62
2021/04/29 01:18:55;;;;;;;13.27;10.32;;;;;;;;;;5038479;28;20132;-62
2021/04/29 01:21:40;;;;;;;12.02;10.07;;;;;;;;;;5038170;28;20041;-62
2021/04/29 01:24:26;;;;;;;12.70;10.43;;;;;;;;;;5038046;28;20045;-62
2021/04/29 01:27:11;;;;;;;13.43;9.63;;;;;;;;;;5052978;28;20414;-62
2021/04/29 01:29:56;;;;;;;13.57;10.73;;;;;;;;;;5052786;28;20059;-62
2021/04/29 01:32:42;;;;;;;14.52;10.30;;;;;;;;;;5037969;28;20070;-62
2021/04/29 01:35:27;;;;;;;17.40;10.68;;;;;;;;;;5052660;28;20044;-62
2021/04/29 01:38:12;;;;;;;15.80;10.77;;;;;;;;;;5037988;28;20240;-62
2021/04/29 01:40:57;;;;;;;15.35;10.85;;;;;;;;;;5037434;28;20052;-62
2021/04/29 01:43:42;;;;;;;15.35;11.75;;;;;;;;;;5038011;28;20059;-62
2021/04/29 01:46:28;;;;;;;14.38;10.50;;;;;;;;;;5037483;28;20049;-62
2021/04/29 01:49:14;;;;;;;13.82;10.85;;;;;;;;;;5052873;28;20064;-62
2021/04/29 01:52:00;;;;;;;13.43;11.20;;;;;;;;;;5052638;28;20045;-62
2021/04/29 01:54:45;;;;;;;14.20;11.27;;;;;;;;;;5037345;28;20501;-62
2021/04/29 01:57:30;;;;;;;15.27;11.85;;;;;;;;;;5052189;28;20053;-62
2021/04/29 02:00:15;;;;;;;15.60;12.35;;;;;;;;;;5052370;28;20049;-62
2021/04/29 02:03:01;;;;;;;15.23;12.43;;;;;;;;;;5052444;28;20055;-61
2021/04/29 02:05:46;;;;;;;19.35;12.43;;;;;;;;;;5052145;28;20136;-62
2021/04/29 02:08:32;;;;;;;16.60;12.82;;;;;;;;;;5052081;28;20037;-63
2021/04/29 02:11:18;;;;;;;15.63;11.93;;;;;;;;;;5052148;28;20063;-62
2021/04/29 02:14:04;;;;;;;18.42;12.52;;;;;;;;;;5052208;28;20507;-62
2021/04/29 02:16:49;;;;;;;17.63;10.93;;;;;;;;;;5037167;28;20048;-62
2021/04/29 02:19:35;;;;;;;13.98;11.57;;;;;;;;;;5037132;28;20106;-62
2021/04/29 02:22:20;;;;;;;15.48;12.27;;;;;;;;;;5037141;28;20044;-62
2021/04/29 02:25:06;;;;;;;20.40;12.35;;;;;;;;;;5052196;28;20045;-62
2021/04/29 02:27:51;;;;;;;17.13;11.75;;;;;;;;;;5051843;28;20090;-62
2021/04/29 02:30:36;;;;;;;15.40;12.13;;;;;;;;;;5051766;28;20115;-62
2021/04/29 02:33:21;;;;;;;16.58;11.95;;;;;;;;;;5036000;28;20044;-62
2021/04/29 02:36:07;;;;;;;17.15;11.52;;;;;;;;;;5051259;28;20076;-62
2021/04/29 02:38:53;;;;;;;18.38;12.88;;;;;;;;;;5051619;28;20151;-62
2021/04/29 02:41:39;;;;;;;19.83;14.48;;;;;;;;;;5036938;28;20048;-62
2021/04/29 02:44:24;;;;;;;20.35;14.15;;;;;;;;;;5036198;28;20045;-62
2021/04/29 02:47:09;;;;;;;17.15;13.68;;;;;;;;;;5051862;28;20053;-62
2021/04/29 02:49:54;;;;;;;17.92;13.52;;;;;;;;;;5051451;28;20110;-62
2021/04/29 02:52:40;;;;;;;19.50;13.75;;;;;;;;;;5051833;28;20045;-62
2021/04/29 02:55:25;;;;;;;20.75;13.45;;;;;;;;;;5036753;28;20064;-62
2021/04/29 02:58:11;;;;;;;17.98;12.32;;;;;;;;;;5051713;28;20198;-62
2021/04/29 03:00:58;;;;;;;17.85;13.30;;;;;;;;;;5051548;28;20065;-62
2021/04/29 03:03:44;;;;;;;16.77;13.80;;;;;;;;;;5036854;28;20049;-62
2021/04/29 03:06:30;;;;;;;20.08;14.18;;;;;;;;;;5051459;28;20044;-62
2021/04/29 03:09:16;;;;;;;18.75;13.93;;;;;;;;;;5051319;28;20498;-62
2021/04/29 03:12:01;;;;;;;21.77;15.60;;;;;;;;;;5036845;28;20439;-62
2021/04/29 03:14:46;;;;;;;19.23;14.27;;;;;;;;;;5051525;28;20076;-62
2021/04/29 03:17:32;;;;;;;21.17;15.18;;;;;;;;;;5048742;28;20052;-62
2021/04/29 03:20:18;;;;;;;20.48;14.43;;;;;;;;;;5051312;28;20102;-62
2021/04/29 03:23:04;;;;;;;21.80;15.20;;;;;;;;;;5051678;28;20059;-62
2021/04/29 03:25:49;;;;;;;22.88;15.90;;;;;;;;;;5051125;28;20505;-61
2021/04/29 03:28:34;;;;;;;23.60;17.52;;;;;;;;;;5051509;28;20067;-62
2021/04/29 03:31:20;;;;;;;23.65;17.10;;;;;;;;;;5051263;28;20045;-62
2021/04/29 03:34:05;;;;;;;22.77;16.35;;;;;;;;;;5036426;28;20044;-62
2021/04/29 03:36:50;;;;;;;23.48;17.10;;;;;;;;;;5051161;28;20076;-62
2021/04/29 03:39:35;;;;;;;19.77;16.77;;;;;;;;;;5051103;28;20076;-62
2021/04/29 03:42:21;;;;;;;25.33;15.73;;;;;;;;;;5051368;28;20068;-61
2021/04/29 03:45:06;;;;;;;22.95;16.33;;;;;;;;;;5051312;28;20045;-62
2021/04/29 03:47:52;;;;;;;23.52;15.32;;;;;;;;;;5051027;28;20041;-62
2021/04/29 03:50:37;;;;;;;25.15;19.17;;;;;;;;;;5051151;28;20049;-62
2021/04/29 03:53:22;;;;;;;24.20;18.45;;;;;;;;;;5051245;28;20415;-62
2021/04/29 03:56:07;;;;;;;23.98;18.45;;;;;;;;;;5054709;28;20433;-62
2021/04/29 03:58:53;;;;;;;24.38;17.48;;;;;;;;;;5054864;28;20196;-62
2021/04/29 04:01:38;;;;;;;25.60;17.55;;;;;;;;;;5054479;28;20041;-62
2021/04/29 04:04:24;;;;;;;25.42;17.20;;;;;;;;;;5054453;28;20495;-62
2021/04/29 04:07:09;;;;;;;25.40;18.15;;;;;;;;;;5054391;28;20706;-62
2021/04/29 04:09:54;;;;;;;21.88;18.02;;;;;;;;;;5054424;28;20053;-62
2021/04/29 04:12:40;;;;;;;28.15;19.55;;;;;;;;;;5054460;28;20491;-62
2021/04/29 04:15:25;;;;;;;23.38;18.67;;;;;;;;;;5054257;28;20049;-62
2021/04/29 04:18:10;;;;;;;24.50;18.02;;;;;;;;;;5054145;28;20045;-62
2021/04/29 04:20:56;;;;;;;24.55;17.65;;;;;;;;;;5054040;28;20045;-62
2021/04/29 04:23:41;;;;;;;24.35;18.45;;;;;;;;;;5054432;28;20049;-62
2021/04/29 04:26:27;;;;;;;27.85;18.83;;;;;;;;;;5054114;28;20503;-62
2021/04/29 04:29:12;;;;;;;27.63;20.38;;;;;;;;;;5053893;28;20037;-62
2021/04/29 04:31:58;;;;;;;25.35;18.92;;;;;;;;;;5054129;28;20530;-61
2021/04/29 04:34:43;;;;;;;27.30;18.50;;;;;;;;;;5054148;28;20053;-62
2021/04/29 04:37:28;;;;;;;26.20;19.98;;;;;;;;;;5054033;28;20128;-62
2021/04/29 04:40:14;;;;;;;25.77;19.42;;;;;;;;;;5053693;28;20087;-61
2021/04/29 04:42:59;;;;;;;28.25;20.13;;;;;;;;;;5054016;28;20048;-62
2021/04/29 04:45:44;;;;;;;24.20;20.38;;;;;;;;;;5053779;28;20044;-62
2021/04/29 04:48:30;;;;;;;22.42;19.20;;;;;;;;;;5053805;28;20099;-62
2021/04/29 04:51:15;;;;;;;30.75;21.15;;;;;;;;;;5053582;28;20060;-62
2021/04/29 04:54:01;;;;;;;26.10;19.58;;;;;;;;;;5053784;28;20129;-62
2021/04/29 04:56:46;;;;;;;30.35;19.88;;;;;;;;;;5053583;28;20495;-62
2021/04/29 04:59:32;;;;;;;31.55;19.13;;;;;;;;;;5053314;28;20052;-62
2021/04/29 05:02:19;;;;;;;23.42;18.58;;;;;;;;;;5053565;28;20049;-62
2021/04/29 05:05:04;;;;;;;25.80;18.10;;;;;;;;;;5053285;28;20049;-62
2021/04/29 05:07:49;;;;;;;22.48;16.10;;;;;;;;;;5053305;28;20052;-62
2021/04/29 05:10:35;;;;;;;21.92;16.83;;;;;;;;;;5052909;28;20423;-62
2021/04/29 05:13:22;;;;;;;30.42;18.65;;;;;;;;;;5053419;28;20041;-62
2021/04/29 05:16:07;;;;;;;22.73;17.75;;;;;;;;;;5038328;28;20045;-62
2021/04/29 05:18:52;;;;;;;22.75;18.25;;;;;;;;;;5052689;28;20099;-62
2021/04/29 05:21:39;;;;;;;25.00;18.27;;;;;;;;;;5052098;28;20049;-62
2021/04/29 05:24:25;;;;;;;27.23;18.70;;;;;;;;;;5052596;28;20056;-62
2021/04/29 05:27:10;;;;;;;27.63;20.95;;;;;;;;;;5053101;28;20045;-62
2021/04/29 05:29:55;;;;;;;25.98;19.85;;;;;;;;;;5052507;28;20411;-62
2021/04/29 05:32:40;;;;;;;28.63;21.67;;;;;;;;;;5052798;28;20049;-62
2021/04/29 05:35:26;;;;;;;26.30;20.67;;;;;;;;;;5050769;28;20060;-62
2021/04/29 05:38:11;;;;;;;28.65;22.65;;;;;;;;;;5049446;28;20171;-63
2021/04/29 05:40:57;;;;;;;30.70;20.05;;;;;;;;;;5051507;28;20128;-63
2021/04/29 05:43:42;;;;;;;26.15;19.50;;;;;;;;;;5049652;28;20067;-62
2021/04/29 05:46:27;;;;;;;28.92;20.95;;;;;;;;;;5050222;28;20048;-62
2021/04/29 05:49:13;;;;;;;27.70;22.17;;;;;;;;;;5049804;28;20065;-62
2021/04/29 05:51:58;;;;;;;26.40;20.42;;;;;;;;;;5050426;28;20052;-63
2021/04/29 05:54:44;;;;;;;25.38;20.08;;;;;;;;;;5052465;28;20053;-62
2021/04/29 05:57:29;;;;;;;27.38;20.60;;;;;;;;;;5052710;28;20048;-62
2021/04/29 06:00:14;;;;;;;26.25;21.48;;;;;;;;;;5052017;28;20052;-62
2021/04/29 06:03:00;;;;;;;25.45;20.83;;;;;;;;;;5032518;28;20051;-62
2021/04/29 06:05:45;;;;;;;25.83;21.00;;;;;;;;;;5032319;28;20045;-61
2021/04/29 06:08:30;;;;;;;26.52;20.80;;;;;;;;;;5032545;28;20045;-63
2021/04/29 06:11:16;;;;;;;26.17;19.63;;;;;;;;;;5038391;28;20037;-63
2021/04/29 06:14:01;;;;;;;27.70;21.15;;;;;;;;;;5052442;28;20047;-63
2021/04/29 06:16:46;;;;;;;28.02;22.38;;;;;;;;;;5052013;28;20450;-63
2021/04/29 06:19:32;;;;;;;30.17;23.00;;;;;;;;;;5051506;28;20040;-62
2021/04/29 06:22:18;;;;;;;31.08;20.75;;;;;;;;;;5052072;28;20045;-62
2021/04/29 06:25:03;;;;;;;28.88;21.45;;;;;;;;;;5052153;28;20045;-63
2021/04/29 06:27:48;;;;;;;28.35;20.40;;;;;;;;;;5052004;28;20135;-62
2021/04/29 06:30:34;;;;;;;26.85;22.33;;;;;;;;;;5051875;28;20554;-62
2021/04/29 06:33:20;;;;;;;27.63;21.38;;;;;;;;;;5051904;28;20056;-62
2021/04/29 06:36:05;;;;;;;29.48;22.48;;;;;;;;;;5051886;28;20048;-62
2021/04/29 06:38:50;;;;;;;26.10;21.33;;;;;;;;;;5051818;28;20041;-62
2021/04/29 06:41:35;;;;;;;28.92;23.67;;;;;;;;;;5051826;28;20045;-62
2021/04/29 06:44:21;;;;;;;27.58;20.88;;;;;;;;;;5031965;28;20045;-62
2021/04/29 06:47:06;;;;;;;28.77;22.85;;;;;;;;;;5031886;28;20041;-62
2021/04/29 06:49:51;;;;;;;26.38;21.60;;;;;;;;;;5031823;28;20077;-62
2021/04/29 06:52:37;;;;;;;25.98;20.13;;;;;;;;;;5037081;28;20073;-62
2021/04/29 06:55:22;;;;;;;24.85;21.70;;;;;;;;;;5051640;28;20069;-62
2021/04/29 06:58:09;;;;;;;27.00;21.42;;;;;;;;;;5051748;28;20045;-62
2021/04/29 07:00:54;;;;;;;25.90;21.15;;;;;;;;;;5051164;28;20413;-62
2021/04/29 07:03:39;;;;;;;26.02;19.60;;;;;;;;;;5051609;28;20049;-62
2021/04/29 07:06:25;;;;;;;24.75;20.08;;;;;;;;;;5107818;22;20657;-62
2021/04/29 07:09:10;;;;;;;24.85;20.77;;;;;;;;;;5071760;28;20048;-61
2021/04/29 07:11:56;;;;;;;28.98;21.52;;;;;;;;;;5071904;28;20076;-62
2021/04/29 07:14:41;;;;;;;27.55;21.45;;;;;;;;;;5071577;28;20060;-62
2021/04/29 07:17:26;;;;;;;24.08;21.25;;;;;;;;;;5036412;28;20049;-62
2021/04/29 07:20:12;;;;;;;22.05;19.73;;;;;;;;;;5036248;28;20048;-61
2021/04/29 07:22:58;;;;;;;24.25;20.23;;;;;;;;;;5051524;28;20499;-62
2021/04/29 07:25:43;;;;;;;27.60;19.70;;;;;;;;;;5057093;28;20119;-61
2021/04/29 07:28:28;;;;;;;24.90;20.88;;;;;;;;;;5071371;28;20057;-62
2021/04/29 07:31:13;;;;;;;27.17;21.98;;;;;;;;;;5075090;28;20135;-62
2021/04/29 07:33:59;;;;;;;23.45;20.42;;;;;;;;;;5075311;28;20048;-62
2021/04/29 07:36:44;;;;;;;32.10;23.35;;;;;;;;;;5075038;28;20131;-62
2021/04/29 07:39:30;;;;;;;28.60;22.33;;;;;;;;;;5074993;28;20048;-62
2021/04/29 07:42:15;;;;;;;25.88;21.40;;;;;;;;;;5075021;28;20036;-62
2021/04/29 07:45:00;;;;;;;27.90;22.27;;;;;;;;;;5059522;28;20053;-62
2021/04/29 07:47:46;;;;;;;27.10;21.80;;;;;;;;;;5060039;28;20090;-62
2021/04/29 07:50:32;;;;;;;27.88;22.17;;;;;;;;;;5074764;28;20123;-61
2021/04/29 07:53:17;;;;;;;34.63;23.88;;;;;;;;;;5074851;28;20052;-62
2021/04/29 07:56:02;;;;;;;26.05;21.73;;;;;;;;;;5073172;28;21874;-62
2021/04/29 07:58:48;;;;;;;28.48;22.10;;;;;;;;;;5074530;28;20049;-62
2021/04/29 08:01:34;;;;;;;25.77;21.85;;;;;;;;;;5074407;28;20044;-62
2021/04/29 08:04:19;;;;;;;28.55;22.88;;;;;;;;;;5074642;28;20044;-62
2021/04/29 08:07:04;;;;;;;35.47;24.23;;;;;;;;;;5061514;28;20053;-62
2021/04/29 08:09:50;;;;;;;29.33;23.42;;;;;;;;;;5054436;28;20045;-62
2021/04/29 08:12:35;;;;;;;33.63;25.02;;;;;;;;;;5054518;28;20132;-62
2021/04/29 08:15:20;;;;;;;26.83;23.98;;;;;;;;;;5054728;28;20502;-62
2021/04/29 08:18:06;;;;;;;31.58;24.00;;;;;;;;;;5072586;28;20131;-62
2021/04/29 08:20:51;;;;;;;30.63;25.10;;;;;;;;;;5074348;28;20044;-62
2021/04/29 08:23:37;;;;;;;32.55;26.75;;;;;;;;;;5074302;28;20041;-62
2021/04/29 08:26:22;;;;;;;36.78;26.98;;;;;;;;;;5072602;28;20133;-61
2021/04/29 08:29:08;;;;;;;34.38;27.02;;;;;;;;;;5061366;28;20049;-63
2021/04/29 08:31:53;;;;;;;34.80;28.08;;;;;;;;;;5073756;28;20107;-62
2021/04/29 08:34:38;;;;;;;33.67;27.27;;;;;;;;;;5073410;28;20033;-62
2021/04/29 08:37:24;;;;;;;33.20;28.33;;;;;;;;;;5068143;28;20116;-62
2021/04/29 08:40:09;;;;;;;41.58;29.58;;;;;;;;;;5071770;28;20063;-62
2021/04/29 08:42:55;;;;;;;35.38;27.88;;;;;;;;;;5073807;28;20048;-62
2021/04/29 08:45:44;;;;;;;39.78;28.67;;;;;;;;;;5073758;28;20036;-62
2021/04/29 08:48:29;;;;;;;35.30;25.92;;;;;;;;;;5066081;28;20055;-62
2021/04/29 08:51:14;;;;;;;32.15;26.02;;;;;;;;;;5056758;28;20052;-62
2021/04/29 08:53:59;;;;;;;38.72;29.50;;;;;;;;;;5072501;28;20052;-62
2021/04/29 08:56:46;;;;;;;33.85;25.58;;;;;;;;;;5071150;28;20421;-61
2021/04/29 08:59:31;;;;;;;37.17;28.25;;;;;;;;;;5070278;28;20084;-61
2021/04/29 09:02:16;;;;;;;37.58;29.05;;;;;;;;;;5071907;28;20051;-61
2021/04/29 09:05:14;;;;;;;33.08;26.83;;;;;;;;;;5053518;28;20049;-61
2021/04/29 09:08:03;;;;;;;37.20;28.95;;;;;;;;;;5053608;28;20049;-61
2021/04/29 09:10:48;;;;;;;33.28;26.98;;;;;;;;;;5053155;28;20106;-61
2021/04/29 09:13:34;;;;;;;41.35;29.95;;;;;;;;;;5053362;28;20068;-62
2021/04/29 09:16:19;;;;;;;39.35;30.10;;;;;;;;;;5053354;28;20068;-63
2021/04/29 09:19:05;;;;;;;41.80;30.95;;;;;;;;;;5071167;28;20048;-63
2021/04/29 09:21:50;;;;;;;39.80;29.58;;;;;;;;;;5073093;28;20551;-63
2021/04/29 09:24:36;;;;;;;42.08;33.22;;;;;;;;;;5071203;28;20048;-62
2021/04/29 09:27:23;;;;;;;44.58;30.42;;;;;;;;;;5071053;28;20048;-63
2021/04/29 09:30:09;;;;;;;46.03;32.88;;;;;;;;;;5069268;28;20044;-63
2021/04/29 09:32:59;;;;;;;55.00;39.53;;;;;;;;;;5056157;28;20040;-63
2021/04/29 09:35:44;;;;;;;50.25;37.28;;;;;;;;;;5072735;28;20048;-63
2021/04/29 09:38:39;;;;;;;58.00;39.00;;;;;;;;;;5072788;28;20135;-62
2021/04/29 09:41:25;;;;;;;60.70;40.10;;;;;;;;;;5070858;28;20415;-63
2021/04/29 09:44:11;;;;;;;70.63;46.05;;;;;;;;;;5069313;28;20395;-63
2021/04/29 09:47:02;;;;;;;60.97;41.10;;;;;;;;;;5070552;28;20044;-62
2021/04/29 09:49:47;;;;;;;65.78;45.10;;;;;;;;;;5053824;28;20052;-62
2021/04/29 09:52:32;;;;;;;53.05;37.92;;;;;;;;;;5052118;28;20140;-62
2021/04/29 09:55:26;;;;;;;48.90;34.38;;;;;;;;;;5052381;28;20135;-62
2021/04/29 09:58:16;;;;;;;69.35;45.00;;;;;;;;;;5052143;28;20044;-62
2021/04/29 10:01:01;;;;;;;72.13;44.70;;;;;;;;;;5062300;28;20055;-62
2021/04/29 10:03:47;;;;;;;72.80;48.88;;;;;;;;;;5054321;28;20127;-62
2021/04/29 10:06:32;;;;;;;70.78;48.47;;;;;;;;;;5057290;28;20048;-62
2021/04/29 10:09:18;;;;;;;94.07;55.83;;;;;;;;;;5056960;28;20049;-62
2021/04/29 10:12:09;;;;;;;71.75;45.45;;;;;;;;;;5070511;28;20053;-62
2021/04/29 10:14:54;;;;;;;73.23;48.17;;;;;;;;;;5071835;28;20071;-62
2021/04/29 10:17:40;;;;;;;84.55;53.58;;;;;;;;;;5057175;28;20058;-62
2021/04/29 10:20:26;;;;;;;81.18;53.45;;;;;;;;;;5071839;28;20048;-62
2021/04/29 10:23:11;;;;;;;79.82;51.60;;;;;;;;;;5069819;28;20041;-63
2021/04/29 10:26:00;;;;;;;83.43;51.30;;;;;;;;;;5056856;28;20048;-62
2021/04/29 10:28:46;;;;;;;76.88;50.47;;;;;;;;;;5071815;28;20117;-63
2021/04/29 10:31:32;;;;;;;66.28;45.33;;;;;;;;;;5065027;28;20495;-63
2021/04/29 10:34:18;;;;;;;60.38;39.95;;;;;;;;;;5051269;28;20652;-63
2021/04/29 10:37:13;;;;;;;68.22;45.60;;;;;;;;;;5051608;28;20487;-63
2021/04/29 10:39:59;;;;;;;55.92;44.28;;;;;;;;;;5051123;28;20045;-63
2021/04/29 10:42:45;;;;;;;64.93;45.08;;;;;;;;;;5051735;28;20045;-63
2021/04/29 10:45:31;;;;;;;56.58;40.65;;;;;;;;;;5051850;28;20076;-63
2021/04/29 10:48:16;;;;;;;61.75;43.47;;;;;;;;;;5051596;28;20041;-63
2021/04/29 10:51:08;;;;;;;57.13;43.03;;;;;;;;;;5050333;28;20487;-63
2021/04/29 10:53:53;;;;;;;75.15;48.42;;;;;;;;;;5052036;28;20406;-63
2021/04/29 10:56:39;;;;;;;64.85;44.65;;;;;;;;;;5051603;28;20045;-63
2021/04/29 10:59:24;;;;;;;62.72;44.10;;;;;;;;;;5051382;28;20037;-63
2021/04/29 11:02:25;;;;;;;63.08;45.15;;;;;;;;;;5051459;28;20048;-63
2021/04/29 11:05:21;;;;;;;67.20;46.10;;;;;;;;;;5053781;28;20071;-63
2021/04/29 11:08:08;;;;;;;71.13;45.35;;;;;;;;;;5055698;28;20048;-63
2021/04/29 11:10:53;;;;;;;65.55;43.67;;;;;;;;;;5055300;28;20040;-63
2021/04/29 11:13:39;;;;;;;63.97;44.28;;;;;;;;;;5055385;28;20048;-63
2021/04/29 11:16:24;;;;;;;60.70;42.50;;;;;;;;;;5040418;28;20045;-62
2021/04/29 11:19:10;;;;;;;61.63;42.30;;;;;;;;;;5067003;28;20040;-63
2021/04/29 11:22:01;;;;;;;58.92;40.45;;;;;;;;;;5070154;28;20041;-63
2021/04/29 11:24:47;;;;;;;67.15;44.63;;;;;;;;;;5072806;28;20041;-63
2021/04/29 11:27:34;;;;;;;59.95;42.20;;;;;;;;;;5072700;28;20448;-62
2021/04/29 11:30:19;;;;;;;62.00;42.22;;;;;;;;;;5055044;28;20049;-62
2021/04/29 11:33:05;;;;;;;60.58;43.28;;;;;;;;;;5055268;28;20384;-63
2021/04/29 11:35:51;;;;;;;64.97;42.78;;;;;;;;;;5055237;28;20049;-62
2021/04/29 11:38:36;;;;;;;60.97;42.88;;;;;;;;;;5054954;28;20406;-63
2021/04/29 11:41:22;;;;;;;57.40;41.53;;;;;;;;;;5054962;28;20041;-63
2021/04/29 11:44:08;;;;;;;67.00;44.65;;;;;;;;;;5055038;28;20407;-62
2021/04/29 11:46:53;;;;;;;68.93;45.55;;;;;;;;;;5058366;28;20057;-62
2021/04/29 11:49:38;;;;;;;63.97;44.92;;;;;;;;;;5073033;28;20049;-63
2021/04/29 11:52:25;;;;;;;60.63;43.03;;;;;;;;;;5071772;28;20082;-63
2021/04/29 11:55:11;;;;;;;56.30;42.20;;;;;;;;;;5072106;28;20044;-62
2021/04/29 11:58:07;;;;;;;62.72;42.75;;;;;;;;;;5057818;28;20135;-63
2021/04/29 12:00:53;;;;;;;40.15;32.53;;;;;;;;;;5067108;28;20037;-63
2021/04/29 12:03:38;;;;;;;49.30;37.03;;;;;;;;;;5062937;28;20064;-62
2021/04/29 12:06:23;;;;;;;49.88;34.83;;;;;;;;;;5055078;28;20044;-62
2021/04/29 12:09:12;;;;;;;49.28;35.03;;;;;;;;;;5071012;28;20048;-63
2021/04/29 12:12:08;;;;;;;54.40;36.75;;;;;;;;;;5071850;28;20060;-62
2021/04/29 12:14:54;;;;;;;57.47;37.92;;;;;;;;;;5046006;28;20053;-62
2021/04/29 12:17:40;;;;;;;42.80;33.20;;;;;;;;;;5070132;28;20048;-63
2021/04/29 12:20:25;;;;;;;59.55;38.95;;;;;;;;;;5070593;28;20110;-63
2021/04/29 12:23:11;;;;;;;53.50;37.92;;;;;;;;;;5070082;28;20123;-62
2021/04/29 12:25:57;;;;;;;57.03;40.25;;;;;;;;;;5066719;28;20040;-62
2021/04/29 12:28:43;;;;;;;52.25;38.35;;;;;;;;;;5070107;28;20465;-63
2021/04/29 12:31:29;;;;;;;53.17;39.35;;;;;;;;;;5070740;28;20048;-63
2021/04/29 12:34:18;;;;;;;57.47;39.00;;;;;;;;;;5070711;28;20190;-63
2021/04/29 12:37:04;;;;;;;44.35;35.85;;;;;;;;;;5055837;28;20053;-62
2021/04/29 12:39:49;;;;;;;50.80;38.75;;;;;;;;;;5072028;28;20044;-62
2021/04/29 12:42:35;;;;;;;44.60;33.40;;;;;;;;;;5071995;28;20053;-62
2021/04/29 12:45:20;;;;;;;44.22;34.50;;;;;;;;;;5071275;28;20056;-62
2021/04/29 12:48:05;;;;;;;47.08;36.28;;;;;;;;;;5070874;28;20043;-62
2021/04/29 12:51:04;;;;;;;37.80;31.58;;;;;;;;;;5069382;28;20479;-62
2021/04/29 12:53:53;;;;;;;40.53;31.77;;;;;;;;;;5069070;28;20048;-62
2021/04/29 12:56:39;;;;;;;38.97;31.92;;;;;;;;;;5070438;28;20037;-63
2021/04/29 12:59:24;;;;;;;36.38;29.15;;;;;;;;;;5064936;28;20494;-62
2021/04/29 13:02:10;;;;;;;45.40;34.20;;;;;;;;;;5071239;28;20044;-62
2021/04/29 13:05:14;;;;;;;30.00;26.65;;;;;;;;;;5071810;28;20044;-62
2021/04/29 13:07:59;;;;;;;28.45;25.27;;;;;;;;;;5070629;28;20045;-63
2021/04/29 13:10:44;;;;;;;32.15;28.33;;;;;;;;;;5050760;28;20557;-62
2021/04/29 13:13:30;;;;;;;36.15;29.27;;;;;;;;;;5068516;28;20131;-62
2021/04/29 13:16:16;;;;;;;28.38;25.35;;;;;;;;;;5056869;28;20056;-63
2021/04/29 13:19:01;;;;;;;26.90;24.15;;;;;;;;;;5066273;28;20052;-63
2021/04/29 13:21:46;;;;;;;27.23;24.33;;;;;;;;;;5070867;28;20048;-63
2021/04/29 13:24:32;;;;;;;27.58;24.65;;;;;;;;;;5058307;28;20040;-62
2021/04/29 13:27:18;;;;;;;27.63;24.67;;;;;;;;;;5058004;28;20453;-63
2021/04/29 13:30:04;;;;;;;30.83;27.40;;;;;;;;;;5064884;28;20056;-62
2021/04/29 13:32:49;;;;;;;34.30;29.90;;;;;;;;;;5050928;28;20091;-63
2021/04/29 13:35:35;;;;;;;37.25;31.90;;;;;;;;;;5051128;28;20052;-63
2021/04/29 13:38:20;;;;;;;26.17;23.38;;;;;;;;;;5050662;28;20052;-63
2021/04/29 13:41:05;;;;;;;27.17;24.25;;;;;;;;;;5068381;28;20563;-63
2021/04/29 13:43:50;;;;;;;28.25;25.20;;;;;;;;;;5055697;28;20135;-62
2021/04/29 13:46:35;;;;;;;31.33;26.15;;;;;;;;;;5070884;28;20486;-64
2021/04/29 13:49:21;;;;;;;35.72;30.48;;;;;;;;;;5068582;28;20072;-63
2021/04/29 13:52:06;;;;;;;29.02;25.55;;;;;;;;;;5049592;28;20433;-63
2021/04/29 13:54:51;;;;;;;33.42;27.65;;;;;;;;;;5050635;28;20045;-63
2021/04/29 13:57:36;;;;;;;29.30;25.10;;;;;;;;;;5050877;28;20045;-63
2021/04/29 14:00:22;;;;;;;28.95;25.77;;;;;;;;;;5050310;28;20450;-63
2021/04/29 14:03:07;;;;;;;23.15;20.70;;;;;;;;;;5069992;28;20045;-63
2021/04/29 14:05:52;;;;;;;23.75;20.42;;;;;;;;;;5070530;28;20037;-63
2021/04/29 14:08:38;;;;;;;22.60;19.85;;;;;;;;;;5070223;28;20637;-63
2021/04/29 14:11:24;;;;;;;23.35;20.90;;;;;;;;;;5067427;28;20048;-62
2021/04/29 14:14:09;;;;;;;25.73;23.02;;;;;;;;;;5069413;28;20525;-63
2021/04/29 14:16:54;;;;;;;22.60;18.00;;;;;;;;;;5064970;28;20045;-61
2021/04/29 14:19:42;;;;;;;26.52;23.00;;;;;;;;;;5070016;28;20041;-62
2021/04/29 14:22:27;;;;;;;21.17;18.42;;;;;;;;;;5069670;28;20107;-62
2021/04/29 14:25:13;;;;;;;21.17;18.80;;;;;;;;;;5069201;28;20060;-63
2021/04/29 14:27:58;;;;;;;25.65;21.48;;;;;;;;;;5069719;28;20415;-63
2021/04/29 14:30:44;;;;;;;18.40;16.52;;;;;;;;;;5068034;28;20132;-63
2021/04/29 14:33:30;;;;;;;19.65;17.65;;;;;;;;;;5069138;28;20414;-63
2021/04/29 14:36:15;;;;;;;22.45;19.90;;;;;;;;;;5069666;28;20064;-62
2021/04/29 14:39:00;;;;;;;27.02;21.52;;;;;;;;;;5068694;28;20056;-63
2021/04/29 14:41:46;;;;;;;25.92;22.13;;;;;;;;;;5050180;28;20052;-63
2021/04/29 14:44:31;;;;;;;32.92;25.45;;;;;;;;;;5049959;28;20044;-63
2021/04/29 14:47:16;;;;;;;46.35;32.20;;;;;;;;;;5049239;28;20049;-63
2021/04/29 14:50:02;;;;;;;41.22;30.10;;;;;;;;;;5048895;28;20518;-63
2021/04/29 14:52:47;;;;;;;38.50;26.58;;;;;;;;;;5050241;28;20048;-62
2021/04/29 14:55:32;;;;;;;41.55;30.92;;;;;;;;;;5049780;28;20139;-62
2021/04/29 14:58:17;;;;;;;27.58;23.35;;;;;;;;;;5049261;28;20136;-62
2021/04/29 15:01:03;;;;;;;41.42;30.42;;;;;;;;;;5057416;28;20056;-63
2021/04/29 15:03:48;;;;;;;50.97;33.92;;;;;;;;;;5067164;28;20044;-62
2021/04/29 15:06:33;;;;;;;43.35;33.10;;;;;;;;;;5069344;28;20111;-63
2021/04/29 15:09:19;;;;;;;53.72;37.58;;;;;;;;;;5069736;28;20060;-62
2021/04/29 15:12:04;;;;;;;57.72;38.72;;;;;;;;;;5053124;28;20041;-63
2021/04/29 15:14:49;;;;;;;59.63;38.22;;;;;;;;;;5049691;28;20057;-63
2021/04/29 15:17:34;;;;;;;49.00;37.22;;;;;;;;;;5044890;28;20057;-62
2021/04/29 15:20:20;;;;;;;45.45;33.15;;;;;;;;;;5049416;28;20144;-62
2021/04/29 15:23:05;;;;;;;46.10;34.58;;;;;;;;;;5068745;28;20045;-62
2021/04/29 15:25:51;;;;;;;50.60;37.47;;;;;;;;;;5069536;28;20060;-63
2021/04/29 15:28:36;;;;;;;48.58;37.08;;;;;;;;;;5069922;28;20076;-63
2021/04/29 15:31:24;;;;;;;43.78;34.90;;;;;;;;;;5067901;28;20079;-63
2021/04/29 15:34:09;;;;;;;45.30;34.63;;;;;;;;;;5066758;28;20037;-62
2021/04/29 15:36:55;;;;;;;45.33;35.55;;;;;;;;;;5067518;28;20108;-62
2021/04/29 15:39:40;;;;;;;45.38;34.67;;;;;;;;;;5068283;28;20641;-63
2021/04/29 15:42:25;;;;;;;41.33;33.85;;;;;;;;;;5065707;28;20063;-63
2021/04/29 15:45:11;;;;;;;49.17;35.03;;;;;;;;;;5068589;28;20091;-62
2021/04/29 15:47:57;;;;;;;44.15;34.55;;;;;;;;;;5068728;28;20036;-62
2021/04/29 15:50:42;;;;;;;41.65;33.22;;;;;;;;;;5070827;28;20052;-63
2021/04/29 15:53:27;;;;;;;43.67;33.90;;;;;;;;;;5057274;28;20132;-62
2021/04/29 15:56:13;;;;;;;42.53;32.90;;;;;;;;;;5052219;28;20060;-63
2021/04/29 15:58:58;;;;;;;36.50;31.92;;;;;;;;;;5052373;28;20045;-62
2021/04/29 16:01:43;;;;;;;43.53;34.70;;;;;;;;;;5064287;28;20053;-62
2021/04/29 16:04:29;;;;;;;46.53;35.28;;;;;;;;;;5062870;28;20044;-63
2021/04/29 16:07:14;;;;;;;47.75;37.63;;;;;;;;;;5072224;28;20036;-62